Latest Weather Observations for Leonora Airport

IDW60801

Issued at 10:05 pm WST Thursday 23 October 2014 (issued every 30 minutes, with the page automatically refreshed every 10 minutes)

About weather observations | Map of weather stations | Latest weather observations for WA | Other Formats
Station Details ID: 012241 Name: LEONORA AERO Lat: -28.88 Lon: 121.32 Height: 370.0 m
Data from the previous 72 hours. | See also: Recent months for locations in Western Australia
Date/Time
WST
Temp
°C
App
Temp
°C
Dew
Point
Rel
Hum
%
Delta-T
°C
Wind Press
QNH
hPa
Press
MSL
hPa
Rain
since 9 am
mm
Dir
 
Spd
km/h
Gust
km/h
Spd
kts
Gust
kts
23/10:00pm 21.9 18.4 3.6 30 9.0 S 11 15 6 8 1015.6 1014.1 0.0
23/09:30pm 21.8 18.2 3.0 29 9.1 SSW 11 15 6 8 1015.5 1014.0 0.0
23/09:00pm 22.1 18.8 2.2 27 9.5 SSW 9 11 5 6 1015.5 1014.0 0.0
23/08:30pm 23.6 20.1 1.3 23 10.6 SSW 9 13 5 7 1015.3 1013.9 0.0
23/08:00pm 24.7 20.5 1.6 22 11.1 SW 13 17 7 9 1015.2 1013.8 0.0
23/07:30pm 25.1 21.6 1.3 21 11.4 SW 9 11 5 6 1015.0 1013.6 0.0
23/07:00pm 26.2 22.4 1.5 20 12.0 SW 11 13 6 7 1014.6 1013.1 0.0
23/06:30pm 27.6 23.6 0.4 17 13.1 WSW 11 15 6 8 1014.0 1012.5 0.0
23/06:00pm 29.1 24.1 -1.1 14 14.3 WSW 15 24 8 13 1013.6 1012.1 0.0
23/05:30pm 29.9 23.9 -1.5 13 14.9 WSW 20 28 11 15 1013.1 1011.6 0.0
23/05:00pm 30.6 24.9 -0.9 13 15.1 WNW 19 22 10 12 1012.8 1011.3 0.0
23/04:30pm 30.7 25.1 1.1 15 14.7 W 20 32 11 17 1012.7 1011.2 0.0
23/04:00pm 30.9 24.9 1.3 15 14.8 WNW 22 30 12 16 1012.4 1010.9 0.0
23/03:30pm 31.0 25.6 2.3 16 14.6 WNW 20 33 11 18 1012.4 1010.9 0.0
23/03:00pm 31.7 25.1 -0.1 13 15.6 NW 24 33 13 18 1012.4 1010.9 0.0
23/02:30pm 30.9 24.3 2.2 16 14.6 W 26 37 14 20 1012.7 1011.2 0.0
23/02:00pm 30.3 23.6 3.4 18 13.9 WNW 28 43 15 23 1013.0 1011.5 0.0
23/01:30pm 30.0 24.0 5.3 21 13.1 WNW 26 33 14 18 1013.3 1011.8 0.0
23/01:00pm 28.5 22.1 5.4 23 12.2 NW 28 41 15 22 1013.8 1012.3 0.0
23/12:30pm 28.5 23.2 6.6 25 11.8 WNW 24 39 13 21 1014.0 1012.5 0.0
23/12:00pm 27.9 24.3 6.6 26 11.4 W 15 20 8 11 1014.3 1012.8 0.0
23/11:30am 27.7 23.2 7.0 27 11.2 WNW 20 28 11 15 1014.8 1013.3 0.0
23/11:00am 26.9 23.0 6.9 28 10.7 W 17 28 9 15 1015.3 1013.9 0.0
23/10:30am 25.0 21.4 6.7 31 9.7 W 15 24 8 13 1015.9 1014.4 0.0
23/10:00am 24.6 21.4 6.8 32 9.4 WSW 13 20 7 11 1016.2 1014.7 0.0
23/09:30am 23.8 20.1 6.1 32 9.2 WSW 15 24 8 13 1016.6 1015.1 0.0
23/09:00am 23.4 20.2 6.7 34 8.7 SSW 13 19 7 10 1016.8 1015.3 0.0
23/08:30am 23.5 20.0 7.2 35 8.6 SW 15 26 8 14 1016.8 1015.3 0.0
23/08:00am 23.1 19.3 7.6 37 8.2 SW 17 28 9 15 1016.9 1015.4 0.0
23/07:30am 22.2 19.1 8.7 42 7.3 SSW 15 20 8 11 1016.5 1015.0 0.0
23/07:00am 21.8 18.7 8.7 43 7.1 SW 15 22 8 12 1016.2 1014.7 0.0
23/06:30am 21.5 18.0 8.7 44 6.9 WSW 17 22 9 12 1016.0 1014.5 0.0
23/06:00am 20.9 18.3 9.2 47 6.3 W 13 17 7 9 1015.6 1014.1 0.0
23/05:30am 20.0 18.1 9.0 49 5.9 W 9 11 5 6 1015.6 1014.1 0.0
23/05:00am 20.3 18.7 8.9 48 6.1 SW 7 9 4 5 1015.6 1014.1 0.0
23/04:30am 21.1 19.0 8.4 44 6.8 SW 9 17 5 9 1015.3 1013.9 0.0
23/04:00am 21.6 18.9 7.4 40 7.5 WSW 11 17 6 9 1014.7 1013.2 0.0
23/03:30am 22.7 19.3 6.0 34 8.6 WSW 13 17 7 9 1014.1 1012.6 0.0
23/03:00am 23.8 21.0 5.2 30 9.5 W 9 13 5 7 1013.6 1012.1 0.0
23/02:30am 25.1 21.1 4.8 27 10.4 W 15 20 8 11 1013.2 1011.7 0.0
23/02:00am 26.2 22.4 4.1 24 11.3 WNW 13 20 7 11 1013.3 1011.8 0.0
23/01:30am 26.1 22.7 4.0 24 11.2 NW 11 13 6 7 1013.1 1011.6 0.0
23/01:00am 27.0 23.1 3.5 22 11.9 WNW 13 17 7 9 1012.7 1011.2 0.0
23/12:30am 27.7 23.0 3.4 21 12.3 WNW 17 24 9 13 1013.0 1011.5 0.0
23/12:00am 28.1 23.0 3.0 20 12.7 WNW 19 28 10 15 1013.6 1012.1 0.0
 
Date/Time
WST
Temp
°C
App
Temp
°C
Dew
Point
Rel
Hum
%
Delta-T
°C
Wind Press
QNH
hPa
Press
MSL
hPa
Rain
since 9 am
mm
Dir
 
Spd
km/h
Gust
km/h
Spd
kts
Gust
kts
22/11:30pm 28.5 23.3 2.7 19 13.0 WNW 19 30 10 16 1013.7 1012.2 0.0
22/11:00pm 28.1 24.3 3.7 21 12.5 NW 13 17 7 9 1013.8 1012.3 0.0
22/10:30pm 28.9 24.6 3.0 19 13.2 NNW 15 19 8 10 1013.9 1012.4 0.0
22/10:00pm 29.3 25.4 3.3 19 13.3 NNW 13 19 7 10 1014.0 1012.5 0.0
22/09:30pm 29.6 25.6 2.8 18 13.6 NNW 13 15 7 8 1014.3 1012.8 0.0
22/09:00pm 30.2 25.4 2.5 17 14.1 NNW 17 24 9 13 1014.4 1012.9 0.0
22/08:30pm 30.4 25.7 0.9 15 14.6 NNW 15 20 8 11 1014.4 1012.9 0.0
22/08:00pm 31.0 25.3 -0.6 13 15.3 NNW 19 24 10 13 1014.3 1012.8 0.0
22/07:30pm 31.3 26.4 -0.4 13 15.4 NNW 15 22 8 12 1014.1 1012.6 0.0
22/07:00pm 31.4 26.5 -0.3 13 15.5 N 15 19 8 10 1013.8 1012.3 0.0
22/06:30pm 32.1 27.3 0.2 13 15.8 N 15 20 8 11 1013.8 1012.3 0.0
22/06:00pm 32.7 27.0 -0.4 12 16.3 N 19 24 10 13 1013.5 1012.0 0.0
22/05:30pm 33.0 28.1 2.0 14 15.9 N 17 22 9 12 1013.4 1011.9 0.0
22/05:00pm 33.5 28.1 1.3 13 16.4 N 19 30 10 16 1013.4 1011.9 0.0
22/04:30pm 34.0 26.6 1.7 13 16.6 N 30 39 16 21 1013.6 1012.1 0.0
22/04:00pm 34.7 26.8 1.1 12 17.1 N 32 44 17 24 1013.6 1012.1 0.0
22/03:42pm 34.7 27.2 1.1 12 17.1 N 30 48 16 26 1013.5 1012.0 0.0
22/03:30pm 35.0 28.7 1.4 12 17.3 N 24 41 13 22 1013.5 1012.0 0.0
22/03:00pm 34.8 27.5 2.3 13 16.9 N 30 43 16 23 1013.9 1012.4 0.0
22/02:30pm 34.4 28.3 5.0 16 15.9 N 26 43 14 23 1014.3 1012.8 0.0
22/02:00pm 33.5 28.8 5.9 18 15.1 ENE 20 30 11 16 1014.6 1013.1 0.0
22/01:30pm 32.9 28.2 6.2 19 14.6 NNE 20 32 11 17 1015.6 1014.1 0.0
22/01:00pm 32.2 27.8 6.4 20 14.1 NE 19 28 10 15 1016.1 1014.6 0.0
22/12:30pm 32.2 27.3 7.1 21 13.9 NNE 22 32 12 17 1016.6 1015.1 0.0
22/12:00pm 31.2 27.0 7.6 23 13.1 NE 19 30 10 16 1016.9 1015.4 0.0
22/11:30am 29.8 25.6 8.2 26 12.0 ENE 20 30 11 16 1017.4 1016.0 0.0
22/11:00am 29.1 25.7 9.3 29 11.2 NE 17 24 9 13 1017.9 1016.5 0.0
22/10:30am 28.2 23.3 8.5 29 10.9 NE 24 33 13 18 1018.4 1016.9 0.0
22/10:00am 27.0 22.4 9.8 34 9.7 ENE 24 33 13 18 1018.7 1017.2 0.0
22/09:30am 26.2 21.8 10.4 37 9.0 ENE 24 37 13 20 1019.2 1017.7 0.0
22/09:00am 25.0 20.3 10.8 41 8.1 ENE 26 35 14 19 1019.1 1017.6 0.0
22/08:30am 23.1 18.5 10.9 46 6.9 ENE 26 43 14 23 1019.1 1017.6 0.0
22/08:00am 22.4 17.8 11.2 49 6.3 ENE 26 33 14 18 1019.3 1017.8 0.0
22/07:30am 21.3 16.4 11.3 53 5.6 E 28 37 15 20 1019.4 1017.9 0.0
22/07:00am 20.2 15.7 11.4 57 4.9 E 26 37 14 20 1019.5 1018.0 0.0
22/06:30am 19.3 16.0 11.6 61 4.3 E 20 32 11 17 1019.5 1018.0 0.0
22/06:00am 17.9 15.6 11.7 67 3.4 ESE 15 20 8 11 1019.4 1017.9 0.0
22/05:30am 16.9 14.2 11.6 71 2.9 ESE 17 20 9 11 1019.1 1017.6 0.0
22/05:00am 17.2 15.2 11.5 69 3.1 SE 13 17 7 9 1019.2 1017.7 0.0
22/04:30am 18.1 15.5 10.7 62 4.1 ESE 15 22 8 12 1018.9 1017.4 0.0
22/04:00am 19.0 16.0 10.8 59 4.5 ESE 17 24 9 13 1018.8 1017.3 0.0
22/03:30am 19.5 16.2 10.8 57 4.8 ESE 19 24 10 13 1018.5 1017.0 0.0
22/03:00am 19.6 17.1 10.9 57 4.8 ESE 15 22 8 12 1018.7 1017.2 0.0
22/02:30am 19.0 16.0 10.8 59 4.5 ESE 17 20 9 11 1018.7 1017.2 0.0
22/02:00am 19.1 16.0 10.4 57 4.8 ESE 17 22 9 12 1018.8 1017.3 0.0
22/01:30am 19.5 16.3 10.0 54 5.2 E 17 22 9 12 1018.8 1017.3 0.0
22/01:00am 19.3 15.9 9.2 52 5.4 ESE 17 20 9 11 1018.8 1017.3 0.0
22/12:30am 19.8 15.9 8.8 49 5.9 ESE 19 24 10 13 1019.0 1017.5 0.0
22/12:00am 20.5 16.9 8.5 46 6.4 ESE 17 20 9 11 1019.6 1018.1 0.0
 
Date/Time
WST
Temp
°C
App
Temp
°C
Dew
Point
Rel
Hum
%
Delta-T
°C
Wind Press
QNH
hPa
Press
MSL
hPa
Rain
since 9 am
mm
Dir
 
Spd
km/h
Gust
km/h
Spd
kts
Gust
kts
21/11:30pm 21.1 18.3 8.4 44 6.8 ESE 13 17 7 9 1020.1 1018.7 0.0
21/11:00pm 21.6 18.8 8.5 43 7.0 E 13 19 7 10 1020.3 1018.9 0.0
21/10:30pm 22.2 19.0 8.3 41 7.5 ESE 15 20 8 11 1020.3 1018.9 0.0
21/10:00pm 22.7 19.4 8.0 39 7.8 ESE 15 20 8 11 1020.3 1018.9 0.0
21/09:30pm 23.3 19.7 8.2 38 8.1 ESE 17 24 9 13 1020.4 1019.0 0.0
21/09:00pm 23.8 20.9 8.2 37 8.4 ESE 13 19 7 10 1020.6 1019.2 0.0
21/08:30pm 24.5 20.8 8.0 35 8.9 ESE 17 22 9 12 1020.6 1019.2 0.0
21/08:00pm 24.6 21.2 7.7 34 9.1 ESE 15 20 8 11 1020.2 1018.8 0.0
21/07:30pm 25.2 22.0 6.9 31 9.7 ESE 13 17 7 9 1019.9 1018.5 0.0
21/07:00pm 25.8 22.5 6.4 29 10.2 ESE 13 15 7 8 1019.6 1018.1 0.0
21/06:30pm 26.5 23.9 6.0 27 10.8 ESE 9 13 5 7 1019.4 1017.9 0.0
21/06:00pm 27.7 26.5 4.7 23 11.9 CALM 0 0 0 0 1019.1 1017.6 0.0
21/05:30pm 28.7 26.8 2.8 19 13.1 E 2 9 1 5 1018.7 1017.2 0.0
21/05:00pm 28.9 26.4 3.7 20 12.9 N 6 11 3 6 1018.5 1017.0 0.0
21/04:30pm 29.4 27.3 4.1 20 13.1 NE 4 19 2 10 1018.6 1017.1 0.0
21/04:00pm 29.5 26.6 4.9 21 12.9 ESE 9 13 5 7 1018.6 1017.1 0.0
21/03:30pm 29.2 26.9 4.6 21 12.9 SE 6 15 3 8 1018.7 1017.2 0.0
21/03:00pm 29.2 26.3 4.6 21 12.8 S 9 13 5 7 1018.8 1017.3 0.0
21/02:30pm 28.7 25.7 4.2 21 12.7 SSE 9 17 5 9 1018.9 1017.4 0.0
21/02:00pm 28.5 25.4 5.4 23 12.2 SSE 11 17 6 9 1019.2 1017.7 0.0
21/01:30pm 28.8 26.8 6.2 24 12.1 N 6 13 3 7 1019.6 1018.1 0.0
21/01:00pm 27.7 25.9 5.3 24 11.7 SE 4 13 2 7 1020.0 1018.6 0.0
21/12:30pm 27.3 25.2 5.6 25 11.4 WNW 6 11 3 6 1020.4 1019.0 0.0
21/12:00pm 26.6 24.8 7.1 29 10.5 NE 6 15 3 8 1020.6 1019.2 0.0
21/11:30am 25.7 23.7 7.3 31 9.9 ENE 7 17 4 9 1021.2 1019.7 0.0
21/11:00am 24.9 23.3 8.0 34 9.1 N 6 17 3 9 1021.6 1020.1 0.0
21/10:30am 23.9 21.2 7.5 35 8.8 E 11 20 6 11 1021.9 1020.4 0.0
21/10:00am 23.6 21.1 9.6 41 7.7 E 13 17 7 9 1022.2 1020.8 0.0
21/09:30am 22.8 20.7 9.9 44 7.1 E 11 20 6 11 1022.4 1021.0 0.0
21/09:00am 21.5 18.8 10.3 49 6.2 ESE 15 22 8 12 1022.5 1021.1 0.0
21/08:30am 20.3 17.2 10.4 53 5.5 ESE 17 20 9 11 1022.3 1020.9 0.0
21/08:00am 19.3 15.8 10.3 56 4.9 SE 19 24 10 13 1022.2 1020.8 0.0
21/07:30am 18.7 15.2 10.3 58 4.6 SE 19 26 10 14 1022.0 1020.5 0.0
21/07:00am 17.6 15.2 10.0 61 4.1 ESE 13 20 7 11 1021.6 1020.1 0.0
21/06:30am 16.4 14.7 9.8 65 3.5 SE 9 15 5 8 1021.3 1019.8 0.0
21/06:00am 14.8 13.0 9.6 71 2.7 SSE 9 13 5 7 1020.8 1019.4 0.0
21/05:30am 13.8 12.0 9.6 76 2.2 SSE 9 11 5 6 1020.4 1019.0 0.0
21/05:00am 13.7 11.9 9.6 76 2.1 SSE 9 11 5 6 1020.0 1018.6 0.0
21/04:30am 14.2 12.4 9.6 74 2.4 SE 9 11 5 6 1019.7 1018.3 0.0
21/04:00am 14.3 13.1 9.5 73 2.5 SE 6 9 3 5 1019.4 1017.9 0.0
21/03:30am 14.5 13.2 9.3 71 2.7 SE 6 9 3 5 1019.1 1017.6 0.0
21/03:00am 15.0 13.1 9.1 68 3.1 ESE 9 11 5 6 1018.9 1017.4 0.0
21/02:30am 16.0 13.6 8.7 62 3.8 SE 11 15 6 8 1018.9 1017.4 0.0
21/02:00am 16.6 14.2 8.6 59 4.2 SSE 11 15 6 8 1018.8 1017.3 0.0
21/01:30am 16.8 14.8 8.5 58 4.3 SSE 9 11 5 6 1018.8 1017.3 0.0
21/01:00am 16.9 14.9 8.6 58 4.3 SSE 9 11 5 6 1018.8 1017.3 0.0
21/12:30am 16.3 14.9 9.0 62 3.8 SSE 6 9 3 5 1018.7 1017.2 0.0
21/12:00am 17.2 15.7 8.4 56 4.6 SSE 6 9 3 5 1018.8 1017.3 0.0
 
Date/Time
WST
Temp
°C
App
Temp
°C
Dew
Point
Rel
Hum
%
Delta-T
°C
Wind Press
QNH
hPa
Press
MSL
hPa
Rain
since 9 am
mm
Dir
 
Spd
km/h
Gust
km/h
Spd
kts
Gust
kts
20/11:30pm 18.2 16.2 8.5 53 5.1 S 9 15 5 8 1018.8 1017.3 0.0
20/11:00pm 17.4 15.7 8.5 56 4.6 S 7 7 4 4 1018.8 1017.3 0.0
20/10:30pm 18.3 16.5 8.0 51 5.4 S 7 9 4 5 1018.9 1017.4 0.0

Other Formats:

Comma delimited format used in spreadsheet applications
http://www.bom.gov.au/fwo/IDW60801/IDW60801.94450.axf

JavaScript Object Notation format (JSON) in row-major order
http://www.bom.gov.au/fwo/IDW60801/IDW60801.94450.json